Archival Weather

Tokyo Intl

Tokyo Intl, Japan (RJTT)

Report from: Friday, June 24, 2022 7:00 AM JST
Current time: Tuesday, August 16, 2022 11:10 AM JST

Current weather
Weather history
Weather forecast

Temperature26.0°C (78.8°F)
Dew point24.0°C (75.2°F)
Winds 16 kts (8.2 m/s, 18.4 mph) South-Southwest (200°)
Visibility5 mi. (8 km)
Clouds Few clouds 400 ft. (122 m)
Scattered clouds 700 ft. (213 m)
Few clouds 800 ft. (244 m)
Ceiling: Broken clouds 900 ft. (274 m)
Scattered clouds 1,200 ft. (366 m)
Altimeter29.74 in.Hg (1007 mB)
Relative humidity89 %
Density altitude1,881 ft. (573 m)
Flight conditions Instrument Meteorological Conditions
Raw dataRJTT 232200Z 20016KT 8000 FEW004 SCT007 BKN009 26/24 Q1007 BECMG FEW008 SCT012 RMK 1ST004 3ST007 5ST009 A2974
An error has occurred. This application may no longer respond until reloaded. Reload 🗙